Time;durP1;ratioP1;P1;durP2;ratioP2;P2;SDS_P1;SDS_P2;PMS_P1;PMS_P2;Temp;Humidity;BMP_temperature;BMP_pressure;BME280_temperature;BME280_humidity;BME280_pressure;Samples;Min_cycle;Max_cycle;Signal;HPM_P1;HPM_P2
2023/07/18 00:00:38;;;;;;;1.45;0.70;;;17.30;79.70;17.20;101101.00;;;;4970447;28;87428;-67
2023/07/18 00:03:05;;;;;;;1.50;0.65;;;17.20;80.20;17.10;101099.00;;;;4968716;28;117113;-67
2023/07/18 00:05:36;;;;;;;0.60;0.52;;;17.10;80.60;17.10;101105.00;;;;4965499;28;97541;-66
2023/07/18 00:08:04;;;;;;;1.23;0.77;;;17.00;81.20;17.00;101113.00;;;;4970685;28;88933;-66
2023/07/18 00:10:30;;;;;;;1.20;0.60;;;16.90;81.60;16.90;101114.00;;;;4969430;28;89298;-66
2023/07/18 00:12:56;;;;;;;0.47;0.47;;;16.80;82.00;16.80;101124.00;;;;4967632;28;117494;-66
2023/07/18 00:15:22;;;;;;;1.02;0.90;;;16.80;82.30;16.70;101117.00;;;;4966964;28;110808;-66
2023/07/18 00:17:48;;;;;;;0.35;0.35;;;16.70;82.60;16.70;101121.00;;;;4971766;28;87988;-67
2023/07/18 00:20:17;;;;;;;4.13;0.80;;;16.60;83.20;16.60;101117.00;;;;4970204;28;88937;-67
2023/07/18 00:22:44;;;;;;;0.82;0.70;;;16.50;83.70;16.50;101122.00;;;;4969229;28;88423;-68
2023/07/18 00:25:16;;;;;;;1.40;0.70;;;16.40;84.40;16.40;101120.00;;;;4969208;28;86924;-68
2023/07/18 00:27:43;;;;;;;0.40;0.40;;;16.40;84.60;16.30;101129.00;;;;4970529;28;87826;-66
2023/07/18 00:30:13;;;;;;;1.58;0.43;;;16.30;85.10;16.20;101116.00;;;;4968825;28;110154;-67
2023/07/18 00:32:42;;;;;;;0.30;0.30;;;16.20;85.60;16.10;101124.00;;;;4971876;28;88844;-67
2023/07/18 00:35:08;;;;;;;0.77;0.73;;;16.10;86.20;16.10;101119.00;;;;4964788;28;88163;-66
2023/07/18 00:37:34;;;;;;;0.30;0.30;;;16.00;86.80;16.00;101132.00;;;;4968573;28;88038;-67
2023/07/18 00:40:00;;;;;;;0.85;0.60;;;16.00;87.00;15.90;101133.00;;;;4971695;28;88911;-68
2023/07/18 00:42:26;;;;;;;2.05;0.73;;;15.90;87.30;15.90;101120.00;;;;4966648;28;109042;-67
2023/07/18 00:44:52;;;;;;;0.60;0.60;;;15.80;88.20;15.80;101125.00;;;;4968788;28;88042;-67
2023/07/18 00:47:18;;;;;;;0.63;0.60;;;15.80;89.30;15.80;101126.00;;;;4965574;28;96510;-66
2023/07/18 00:49:45;;;;;;;0.75;0.75;;;15.70;89.80;15.70;101136.00;;;;4965539;28;117110;-66
2023/07/18 00:52:12;;;;;;;0.65;0.40;;;15.70;90.10;15.60;101132.00;;;;4970161;28;107469;-67
2023/07/18 00:54:39;;;;;;;1.23;0.30;;;15.60;90.30;15.60;101132.00;;;;4969152;28;87747;-66
2023/07/18 00:57:07;;;;;;;0.80;0.80;;;15.50;90.60;15.50;101134.00;;;;4963156;28;88769;-66
2023/07/18 00:59:33;;;;;;;0.43;0.35;;;15.50;90.80;15.50;101138.00;;;;4971328;28;87923;-67
2023/07/18 01:01:59;;;;;;;0.70;0.55;;;15.40;90.80;15.40;101136.00;;;;4963167;28;116420;-67
2023/07/18 01:04:25;;;;;;;2.20;0.63;;;15.40;91.00;15.40;101127.00;;;;4966141;28;109284;-67
2023/07/18 01:06:52;;;;;;;0.75;0.75;;;15.30;91.10;15.30;101130.00;;;;4971456;28;88047;-66
2023/07/18 01:09:19;;;;;;;0.60;0.60;;;15.30;91.30;15.30;101137.00;;;;4969062;28;88922;-66
2023/07/18 01:11:44;;;;;;;0.40;0.40;;;15.20;92.00;15.20;101138.00;;;;4968814;28;87719;-67
2023/07/18 01:14:10;;;;;;;0.30;0.30;;;15.20;91.90;15.20;101140.00;;;;4969750;28;109874;-68
2023/07/18 01:16:36;;;;;;;0.50;0.50;;;15.10;92.30;15.10;101142.00;;;;4966275;28;110537;-67
2023/07/18 01:19:02;;;;;;;0.55;0.50;;;15.10;92.50;15.10;101147.00;;;;4964545;28;87999;-66
2023/07/18 01:21:28;;;;;;;1.08;0.85;;;15.00;92.80;15.00;101135.00;;;;4968390;28;116432;-67
2023/07/18 01:23:53;;;;;;;0.50;0.40;;;15.00;93.10;14.90;101132.00;;;;4966912;28;111105;-66
2023/07/18 01:26:19;;;;;;;0.22;0.22;;;14.90;93.40;14.90;101134.00;;;;4965741;28;107295;-66
2023/07/18 01:28:45;;;;;;;0.40;0.40;;;14.80;93.70;14.80;101133.00;;;;4967062;28;113545;-66
2023/07/18 01:31:11;;;;;;;1.15;0.95;;;14.80;93.80;14.80;101131.00;;;;4968836;28;109442;-66
2023/07/18 01:33:37;;;;;;;0.60;0.53;;;14.70;93.90;14.70;101128.00;;;;4967829;28;110438;-67
2023/07/18 01:36:03;;;;;;;1.65;0.73;;;14.70;94.00;14.70;101131.00;;;;4968219;28;108565;-67
2023/07/18 01:38:31;;;;;;;0.83;0.70;;;14.60;94.10;14.60;101140.00;;;;4967444;28;107555;-67
2023/07/18 01:41:00;;;;;;;0.70;0.70;;;14.60;94.30;14.60;101140.00;;;;4970948;28;87853;-67
2023/07/18 01:43:26;;;;;;;1.90;0.50;;;14.60;94.30;14.60;101137.00;;;;4964116;28;103726;-68
2023/07/18 01:45:51;;;;;;;1.90;0.77;;;14.50;94.40;14.50;101130.00;;;;4965083;28;88806;-67
2023/07/18 01:48:19;;;;;;;0.73;0.43;;;14.50;94.60;14.50;101135.00;;;;4965069;28;117798;-67
2023/07/18 01:50:44;;;;;;;0.68;0.68;;;14.40;94.70;14.40;101136.00;;;;4967259;28;89043;-67
2023/07/18 01:53:13;;;;;;;0.63;0.60;;;14.40;94.90;14.40;101127.00;;;;4967436;28;110062;-68
2023/07/18 01:55:40;;;;;;;2.10;0.90;;;14.40;95.00;14.40;101139.00;;;;4967732;28;87954;-67
2023/07/18 01:58:05;;;;;;;0.40;0.40;;;14.40;95.50;14.30;101136.00;;;;4971717;28;88090;-67
2023/07/18 02:00:32;;;;;;;1.10;0.73;;;14.30;95.80;14.30;101132.00;;;;4963603;28;114981;-67
2023/07/18 02:02:58;;;;;;;0.73;0.70;;;14.30;96.50;14.20;101139.00;;;;4968842;28;87212;-67
2023/07/18 02:05:27;;;;;;;2.57;1.13;;;14.20;96.80;14.20;101135.00;;;;4968679;28;87816;-67
2023/07/18 02:07:54;;;;;;;0.40;0.40;;;14.20;97.00;14.10;101135.00;;;;4967230;28;89245;-67
2023/07/18 02:10:21;;;;;;;0.63;0.63;;;14.10;97.30;14.10;101133.00;;;;4968202;28;88698;-66
2023/07/18 02:12:48;;;;;;;1.33;0.80;;;14.10;97.60;14.00;101130.00;;;;4967214;28;87711;-67
2023/07/18 02:15:14;;;;;;;0.50;0.47;;;14.00;97.80;14.00;101131.00;;;;4967377;28;88764;-67
2023/07/18 02:17:40;;;;;;;0.93;0.87;;;14.00;98.00;14.00;101142.00;;;;4967335;28;89117;-67
2023/07/18 02:20:09;;;;;;;1.27;0.87;;;13.90;98.10;13.90;101146.00;;;;4965359;28;88021;-67
2023/07/18 02:22:36;;;;;;;0.60;0.50;;;13.90;98.40;13.90;101139.00;;;;4968233;28;88203;-67
2023/07/18 02:25:03;;;;;;;0.80;0.70;;;13.90;98.80;13.80;101144.00;;;;4964345;28;87894;-67
2023/07/18 02:27:30;;;;;;;0.70;0.67;;;13.80;99.00;13.80;101144.00;;;;4968036;28;88077;-67
2023/07/18 02:29:56;;;;;;;0.67;0.60;;;13.80;99.30;13.80;101147.00;;;;4965495;28;87840;-67
2023/07/18 02:32:22;;;;;;;1.37;0.93;;;13.70;99.60;13.70;101152.00;;;;4966626;28;88244;-66
2023/07/18 02:34:48;;;;;;;0.80;0.77;;;13.70;99.80;13.70;101157.00;;;;4966475;28;88923;-66
2023/07/18 02:37:13;;;;;;;1.43;0.77;;;13.70;99.90;13.60;101157.00;;;;4967912;28;108722;-67
2023/07/18 02:39:39;;;;;;;1.00;0.90;;;13.60;99.90;13.60;101155.00;;;;4967540;28;117895;-67
2023/07/18 02:42:06;;;;;;;4.90;0.63;;;13.50;99.90;13.60;101156.00;;;;4965458;28;108865;-68
2023/07/18 02:44:32;;;;;;;0.57;0.57;;;13.60;99.90;13.60;101155.00;;;;4967981;28;87804;-68
2023/07/18 02:46:58;;;;;;;1.00;0.90;;;13.50;99.90;13.50;101153.00;;;;4963689;28;110568;-68
2023/07/18 02:49:24;;;;;;;0.70;0.40;;;13.50;99.90;13.50;101159.00;;;;4965418;28;96008;-68
2023/07/18 02:51:49;;;;;;;0.60;0.60;;;13.40;99.90;13.50;101163.00;;;;4966977;28;101387;-66
2023/07/18 02:54:15;;;;;;;1.00;0.83;;;13.40;99.90;13.40;101160.00;;;;4964904;28;107875;-68
2023/07/18 02:56:41;;;;;;;1.80;0.87;;;13.40;99.90;13.40;101166.00;;;;4966488;28;118377;-68
2023/07/18 02:59:06;;;;;;;1.27;0.83;;;13.40;99.90;13.30;101162.00;;;;4962213;28;116631;-67
2023/07/18 03:01:34;;;;;;;1.23;0.43;;;13.30;99.90;13.30;101155.00;;;;4965345;28;108904;-67
2023/07/18 03:04:00;;;;;;;1.10;0.87;;;13.30;99.90;13.30;101159.00;;;;4964824;28;87842;-67
2023/07/18 03:06:27;;;;;;;0.30;0.30;;;13.20;99.90;13.30;101166.00;;;;4962528;28;88901;-66
2023/07/18 03:08:53;;;;;;;1.40;0.87;;;13.20;99.90;13.20;101171.00;;;;4963675;28;88938;-67
2023/07/18 03:11:19;;;;;;;0.93;0.40;;;13.20;99.90;13.20;101174.00;;;;4963811;28;100139;-68
2023/07/18 03:13:45;;;;;;;0.70;0.60;;;13.20;99.90;13.20;101167.00;;;;4967266;28;107622;-68
2023/07/18 03:16:11;;;;;;;0.57;0.57;;;13.10;99.90;13.20;101168.00;;;;4968474;28;88014;-67
2023/07/18 03:18:37;;;;;;;1.13;0.60;;;13.10;99.90;13.10;101168.00;;;;4966949;28;117215;-68
2023/07/18 03:21:03;;;;;;;1.53;0.80;;;13.10;99.90;13.10;101173.00;;;;4962196;28;100514;-68
2023/07/18 03:23:29;;;;;;;1.20;0.60;;;13.10;99.90;13.10;101170.00;;;;4965598;28;88772;-68
2023/07/18 03:25:55;;;;;;;1.30;0.90;;;13.10;99.90;13.10;101170.00;;;;4968498;28;88671;-67
2023/07/18 03:28:21;;;;;;;1.70;0.37;;;13.10;99.90;13.10;101173.00;;;;4955768;28;91333;-67
2023/07/18 03:30:47;;;;;;;0.60;0.60;;;13.10;99.90;13.10;101174.00;;;;4968616;28;88030;-67
2023/07/18 03:33:12;;;;;;;1.03;0.93;;;13.10;99.90;13.10;101165.00;;;;4969803;28;96618;-67
2023/07/18 03:35:39;;;;;;;0.30;0.30;;;13.10;99.90;13.00;101169.00;;;;4970937;28;116677;-67
2023/07/18 03:38:04;;;;;;;0.50;0.43;;;12.90;99.90;13.00;101182.00;;;;4968257;28;104442;-67
2023/07/18 03:40:30;;;;;;;0.40;0.37;;;13.10;99.90;13.10;101168.00;;;;4966683;28;87149;-66
2023/07/18 03:42:56;;;;;;;0.70;0.70;;;13.00;99.90;13.10;101179.00;;;;4968965;28;97407;-66
2023/07/18 03:45:22;;;;;;;0.50;0.37;;;13.10;99.90;13.10;101177.00;;;;4967476;28;117369;-66
2023/07/18 03:47:48;;;;;;;0.63;0.53;;;13.00;99.90;13.10;101174.00;;;;4969605;28;106062;-66
2023/07/18 03:50:18;;;;;;;0.60;0.60;;;13.10;99.90;13.10;101187.00;;;;4971036;28;110307;-67
2023/07/18 03:52:44;;;;;;;0.40;0.40;;;13.10;99.90;13.10;101179.00;;;;4970816;28;87790;-66
2023/07/18 03:55:09;;;;;;;0.50;0.43;;;13.10;99.90;13.20;101167.00;;;;4967777;28;88859;-67
2023/07/18 03:57:35;;;;;;;0.70;0.50;;;13.10;99.90;13.20;101174.00;;;;4969077;28;98878;-66
2023/07/18 04:00:06;;;;;;;0.90;0.50;;;13.20;99.90;13.30;101167.00;;;;4967696;28;94251;-66
2023/07/18 04:02:31;;;;;;;1.70;0.73;;;13.20;99.90;13.30;101170.00;;;;4957217;28;87965;-66
2023/07/18 04:04:57;;;;;;;0.77;0.70;;;13.30;99.90;13.40;101171.00;;;;4968604;28;116216;-67
2023/07/18 04:07:24;;;;;;;0.83;0.83;;;13.30;99.90;13.40;101164.00;;;;4965719;28;116891;-66
2023/07/18 04:09:50;;;;;;;1.37;0.80;;;13.40;99.90;13.50;101161.00;;;;4968526;28;87810;-67
2023/07/18 04:12:16;;;;;;;0.57;0.53;;;13.40;99.90;13.60;101161.00;;;;4970373;28;108162;-66
2023/07/18 04:14:43;;;;;;;0.83;0.83;;;13.50;99.90;13.60;101160.00;;;;4970573;28;88327;-66
2023/07/18 04:17:09;;;;;;;0.40;0.40;;;13.60;99.90;13.70;101160.00;;;;4970377;28;90116;-66
2023/07/18 04:19:35;;;;;;;0.63;0.63;;;13.70;99.90;13.80;101164.00;;;;4971441;28;87868;-66
2023/07/18 04:22:01;;;;;;;0.50;0.33;;;13.70;99.90;13.90;101163.00;;;;4969585;28;89345;-66
2023/07/18 04:24:26;;;;;;;0.33;0.30;;;13.90;99.90;14.00;101163.00;;;;4970526;28;96950;-66
2023/07/18 04:26:52;;;;;;;0.67;0.67;;;13.90;99.90;14.10;101158.00;;;;4967935;28;117380;-66
2023/07/18 04:29:18;;;;;;;0.53;0.50;;;14.00;99.90;14.10;101161.00;;;;4967260;28;109889;-67
2023/07/18 04:31:45;;;;;;;0.80;0.47;;;14.00;99.90;14.20;101162.00;;;;4967294;28;88001;-67
2023/07/18 04:34:11;;;;;;;1.17;0.70;;;14.10;99.90;14.40;101160.00;;;;4966501;28;107783;-66
2023/07/18 04:36:37;;;;;;;0.70;0.63;;;14.20;99.90;14.50;101164.00;;;;4968384;28;89406;-66
2023/07/18 04:39:02;;;;;;;0.77;0.50;;;14.30;99.90;14.60;101171.00;;;;4973916;28;87988;-66
2023/07/18 04:41:28;;;;;;;0.30;0.30;;;14.40;99.90;14.60;101157.00;;;;4967848;28;88018;-67
2023/07/18 04:43:54;;;;;;;0.53;0.53;;;14.50;99.90;14.70;101173.00;;;;4964665;28;116643;-66
2023/07/18 04:46:19;;;;;;;0.40;0.40;;;14.60;99.90;14.80;101170.00;;;;4965256;28;118934;-67
2023/07/18 04:48:45;;;;;;;0.50;0.50;;;14.70;99.90;15.00;101182.00;;;;4963621;28;111222;-67
2023/07/18 04:51:11;;;;;;;0.60;0.40;;;14.80;99.90;15.10;101178.00;;;;4966775;28;108561;-66
2023/07/18 04:53:36;;;;;;;0.93;0.45;;;15.00;99.90;15.20;101173.00;;;;4966611;28;115325;-66
2023/07/18 04:56:04;;;;;;;0.50;0.50;;;15.10;99.90;15.30;101167.00;;;;4966319;28;116673;-67
2023/07/18 04:58:29;;;;;;;1.00;0.47;;;15.20;99.90;15.50;101172.00;;;;4962329;28;88162;-66
2023/07/18 05:00:56;;;;;;;0.40;0.40;;;15.40;99.90;15.70;101173.00;;;;4964269;28;88886;-67
2023/07/18 05:03:23;;;;;;;0.77;0.43;;;15.50;99.90;15.90;101177.00;;;;4963901;28;88905;-67
2023/07/18 05:05:49;;;;;;;0.32;0.32;;;15.70;99.90;16.00;101173.00;;;;4965962;28;105550;-67
2023/07/18 05:08:16;;;;;;;0.63;0.63;;;15.90;99.90;16.20;101177.00;;;;4960365;28;111850;-67
2023/07/18 05:10:42;;;;;;;0.47;0.47;;;16.00;99.90;16.40;101180.00;;;;4962874;28;87719;-67
2023/07/18 05:13:08;;;;;;;0.40;0.40;;;16.20;99.90;16.60;101183.00;;;;4961880;28;117117;-67
2023/07/18 05:15:37;;;;;;;0.40;0.40;;;16.40;99.60;16.70;101167.00;;;;4966738;28;88263;-67
2023/07/18 05:18:03;;;;;;;1.00;0.60;;;16.60;99.10;16.90;101177.00;;;;4963032;28;87032;-67
2023/07/18 05:20:30;;;;;;;1.20;0.60;;;16.70;98.70;17.10;101174.00;;;;4965141;28;89865;-66
2023/07/18 05:22:55;;;;;;;0.88;0.57;;;16.90;98.40;17.30;101175.00;;;;4966536;27;88401;-66
2023/07/18 05:25:21;;;;;;;0.50;0.50;;;17.10;98.20;17.50;101174.00;;;;4958012;28;116213;-66
2023/07/18 05:27:53;;;;;;;0.82;0.47;;;17.30;97.90;17.70;101181.00;;;;4967023;28;109269;-66
2023/07/18 05:30:20;;;;;;;0.73;0.30;;;17.50;97.50;17.90;101174.00;;;;4963417;28;108174;-66
2023/07/18 05:32:46;;;;;;;0.43;0.40;;;17.70;97.20;18.20;101178.00;;;;4966234;28;88437;-67
2023/07/18 05:35:15;;;;;;;0.57;0.55;;;17.90;96.70;18.40;101181.00;;;;4968678;28;98707;-66
2023/07/18 05:37:43;;;;;;;0.57;0.57;;;18.20;96.60;18.60;101189.00;;;;4967146;28;87971;-66
2023/07/18 05:40:11;;;;;;;0.50;0.50;;;18.40;95.60;18.80;101179.00;;;;4966096;28;100751;-66
2023/07/18 05:42:37;;;;;;;0.20;0.20;;;18.60;95.10;19.00;101177.00;;;;4965422;28;87705;-64
2023/07/18 05:45:06;;;;;;;0.63;0.20;;;18.80;94.50;19.20;101189.00;;;;4965968;28;87696;-65
2023/07/18 05:47:32;;;;;;;0.68;0.28;;;19.00;93.90;19.40;101185.00;;;;4962681;28;87856;-66
2023/07/18 05:49:58;;;;;;;0.57;0.50;;;19.20;93.50;19.50;101195.00;;;;4966697;28;88867;-65
2023/07/18 05:52:23;;;;;;;0.93;0.50;;;19.30;92.80;19.50;101185.00;;;;4965919;28;116746;-66
2023/07/18 05:54:49;;;;;;;0.20;0.20;;;19.40;92.30;19.50;101194.00;;;;4964737;28;118356;-67
2023/07/18 05:57:15;;;;;;;0.95;0.73;;;19.40;91.60;19.50;101192.00;;;;4964258;28;108787;-64
2023/07/18 05:59:41;;;;;;;0.40;0.40;;;19.40;91.30;19.40;101188.00;;;;4963454;28;88035;-64
2023/07/18 06:02:07;;;;;;;0.93;0.40;;;19.30;91.20;19.50;101191.00;;;;4965357;28;118731;-65
2023/07/18 06:04:34;;;;;;;5.57;0.40;;;19.30;91.10;19.50;101188.00;;;;4965303;28;89277;-65
2023/07/18 06:07:00;;;;;;;1.02;0.40;;;19.40;90.90;19.60;101189.00;;;;4962475;28;87090;-66
2023/07/18 06:09:25;;;;;;;0.28;0.28;;;19.40;90.80;19.70;101198.00;;;;4962692;28;109253;-66
2023/07/18 06:11:52;;;;;;;0.38;0.38;;;19.50;90.20;19.70;101193.00;;;;4963613;28;88895;-65
2023/07/18 06:14:18;;;;;;;0.45;0.35;;;19.60;90.00;19.80;101191.00;;;;4965741;28;89199;-66
2023/07/18 06:16:45;;;;;;;0.77;0.65;;;19.60;89.90;19.90;101186.00;;;;4965368;28;88023;-65
2023/07/18 06:19:12;;;;;;;0.80;0.50;;;19.70;89.90;20.20;101189.00;;;;4964457;28;88023;-65
2023/07/18 06:21:38;;;;;;;0.47;0.38;;;19.90;89.70;20.40;101185.00;;;;4963733;28;88867;-65
2023/07/18 06:24:05;;;;;;;0.65;0.65;;;20.10;89.00;20.50;101183.00;;;;4963614;28;87907;-67
2023/07/18 06:26:31;;;;;;;0.75;0.68;;;20.40;87.40;20.60;101183.00;;;;4965810;28;91259;-66
2023/07/18 06:28:57;;;;;;;0.40;0.40;;;20.40;86.90;20.70;101182.00;;;;4962438;28;100568;-65
2023/07/18 06:31:23;;;;;;;0.50;0.50;;;20.50;86.40;20.80;101183.00;;;;4965180;28;88837;-66
2023/07/18 06:33:49;;;;;;;0.68;0.52;;;20.60;85.80;20.80;101180.00;;;;4963881;28;117890;-66
2023/07/18 06:36:15;;;;;;;1.50;0.80;;;20.70;85.50;20.80;101180.00;;;;4962275;28;109963;-66
2023/07/18 06:38:41;;;;;;;0.77;0.65;;;20.70;85.00;20.80;101188.00;;;;4963916;28;88670;-67
2023/07/18 06:41:06;;;;;;;1.13;0.80;;;20.70;84.80;20.90;101181.00;;;;4962447;28;106028;-66
2023/07/18 06:43:32;;;;;;;1.50;0.88;;;20.80;84.30;20.80;101187.00;;;;4960286;28;117033;-67
2023/07/18 06:45:58;;;;;;;1.13;0.80;;;20.70;83.60;20.80;101193.00;;;;4965262;28;110640;-66
2023/07/18 06:48:24;;;;;;;0.40;0.40;;;20.70;84.00;20.80;101191.00;;;;4968775;28;87840;-66
2023/07/18 06:50:53;;;;;;;4.50;0.73;;;20.70;83.20;20.90;101190.00;;;;4967223;28;106628;-66
2023/07/18 06:53:21;;;;;;;1.48;0.50;;;20.80;83.30;21.10;101191.00;;;;4967088;28;88265;-65
2023/07/18 06:55:51;;;;;;;4.38;1.25;;;20.80;83.00;21.30;101192.00;;;;4969189;28;97567;-66
2023/07/18 06:58:18;;;;;;;0.68;0.50;;;21.00;82.50;21.40;101192.00;;;;4963798;28;87791;-65
2023/07/18 07:00:44;;;;;;;2.25;0.77;;;21.20;81.60;21.70;101201.00;;;;4965034;28;88177;-66
2023/07/18 07:03:10;;;;;;;2.60;0.63;;;21.40;81.40;21.90;101202.00;;;;4967226;28;90010;-66
2023/07/18 07:05:38;;;;;;;0.50;0.32;;;21.60;80.50;22.10;101191.00;;;;4966833;28;95427;-66
2023/07/18 07:08:08;;;;;;;0.30;0.30;;;22.00;79.60;22.20;101191.00;;;;4965896;28;90236;-66
2023/07/18 07:10:35;;;;;;;2.17;0.70;;;22.00;78.90;22.30;101194.00;;;;4967038;28;89269;-65
2023/07/18 07:13:01;;;;;;;1.33;0.63;;;22.10;76.40;22.40;101182.00;;;;4967247;28;88442;-65
2023/07/18 07:15:26;;;;;;;1.40;0.93;;;22.20;76.10;22.50;101179.00;;;;4963657;28;88135;-65
2023/07/18 07:17:52;;;;;;;1.45;0.70;;;22.40;75.80;22.60;101181.00;;;;4966886;28;88543;-66
2023/07/18 07:20:19;;;;;;;1.13;0.50;;;22.50;75.40;22.70;101188.00;;;;4965432;28;116990;-65
2023/07/18 07:22:47;;;;;;;0.52;0.50;;;22.50;74.80;22.70;101187.00;;;;4967710;28;87895;-67
2023/07/18 07:25:14;;;;;;;2.30;1.00;;;22.60;73.70;22.80;101186.00;;;;4966276;28;87973;-65
2023/07/18 07:27:43;;;;;;;1.23;0.63;;;22.60;73.20;22.90;101184.00;;;;4966785;28;88935;-65
2023/07/18 07:30:15;;;;;;;0.60;0.50;;;22.70;72.80;23.00;101188.00;;;;4965239;28;88829;-64
2023/07/18 07:32:53;;;;;;;1.08;0.98;;;22.90;71.80;23.00;101184.00;;;;4966140;28;88393;-66
2023/07/18 07:35:24;;;;;;;0.55;0.40;;;22.90;70.80;23.10;101173.00;;;;4966995;28;88005;-65
2023/07/18 07:37:51;;;;;;;4.13;0.93;;;23.00;69.80;23.10;101181.00;;;;4967547;28;88009;-65
2023/07/18 07:40:18;;;;;;;1.77;0.88;;;23.00;68.50;23.10;101175.00;;;;4965555;28;89018;-66
2023/07/18 07:42:45;;;;;;;2.20;1.27;;;23.00;67.80;23.10;101179.00;;;;4965547;28;88568;-67
2023/07/18 07:45:13;;;;;;;0.63;0.43;;;23.00;67.60;23.20;101177.00;;;;4965174;28;87013;-67
2023/07/18 07:47:39;;;;;;;0.85;0.60;;;23.00;67.80;23.30;101171.00;;;;4964046;28;93319;-66
2023/07/18 07:50:06;;;;;;;0.50;0.50;;;23.10;67.60;23.50;101176.00;;;;4965442;28;118481;-66
2023/07/18 07:52:32;;;;;;;0.57;0.57;;;23.30;67.80;23.80;101174.00;;;;4966103;28;89336;-66
2023/07/18 07:54:58;;;;;;;0.95;0.50;;;23.50;67.20;24.00;101166.00;;;;4964307;28;87758;-66
2023/07/18 07:57:25;;;;;;;0.40;0.38;;;23.70;66.50;24.20;101169.00;;;;4967204;28;87887;-67
2023/07/18 07:59:51;;;;;;;0.65;0.60;;;24.00;65.00;24.30;101168.00;;;;4963416;28;88719;-67
2023/07/18 08:02:19;;;;;;;0.77;0.63;;;24.10;64.10;24.50;101171.00;;;;4964361;28;88415;-66
2023/07/18 08:04:46;;;;;;;1.88;0.75;;;24.30;62.90;24.60;101163.00;;;;4966342;28;88114;-65
2023/07/18 08:07:12;;;;;;;1.00;0.88;;;24.40;62.40;24.60;101163.00;;;;4962625;28;88001;-66
2023/07/18 08:09:37;;;;;;;1.95;0.93;;;24.50;61.00;24.70;101162.00;;;;4966553;28;87947;-66
2023/07/18 08:12:04;;;;;;;0.65;0.50;;;24.60;60.30;24.80;101157.00;;;;4962902;28;94147;-67
2023/07/18 08:14:32;;;;;;;1.38;0.75;;;24.70;60.70;25.20;101160.00;;;;4967106;28;87887;-66
2023/07/18 08:16:58;;;;;;;0.73;0.40;;;24.90;60.20;25.30;101154.00;;;;4964375;28;88957;-66
2023/07/18 08:19:24;;;;;;;0.82;0.77;;;25.10;58.70;25.40;101157.00;;;;4966498;28;117308;-65
2023/07/18 08:21:49;;;;;;;1.15;0.60;;;25.20;58.40;25.50;101156.00;;;;4963536;28;87933;-70
2023/07/18 08:24:16;;;;;;;2.10;0.70;;;25.30;58.30;25.70;101156.00;;;;4965976;28;109695;-67
2023/07/18 08:26:42;;;;;;;0.40;0.30;;;25.50;58.10;26.00;101151.00;;;;4963774;28;88069;-66
2023/07/18 08:29:08;;;;;;;0.60;0.52;;;25.80;57.70;26.30;101147.00;;;;4961541;28;109249;-66
2023/07/18 08:31:34;;;;;;;0.50;0.35;;;26.00;57.30;26.60;101147.00;;;;4962291;28;116264;-66
2023/07/18 08:33:59;;;;;;;1.77;0.70;;;26.30;56.90;26.90;101139.00;;;;4964582;28;87256;-66
2023/07/18 08:36:25;;;;;;;1.00;0.90;;;26.50;56.30;27.00;101145.00;;;;4965908;28;108883;-66
2023/07/18 08:38:51;;;;;;;0.90;0.80;;;26.70;55.30;27.00;101145.00;;;;4969104;28;88003;-65
2023/07/18 08:41:21;;;;;;;0.73;0.50;;;26.80;53.90;27.00;101132.00;;;;4969512;28;88637;-65
2023/07/18 08:43:47;;;;;;;0.73;0.30;;;26.80;53.60;27.10;101138.00;;;;4970124;28;91656;-64
2023/07/18 08:46:14;;;;;;;1.60;0.68;;;26.90;53.50;27.30;101133.00;;;;4963574;28;87847;-65
2023/07/18 08:48:44;;;;;;;2.05;0.55;;;27.00;53.40;27.50;101133.00;;;;4964095;28;88043;-66
2023/07/18 08:51:12;;;;;;;0.98;0.60;;;27.20;52.80;27.80;101130.00;;;;4962382;28;88279;-66
2023/07/18 08:53:41;;;;;;;1.45;0.52;;;27.50;52.30;28.00;101123.00;;;;4966937;28;88563;-66
2023/07/18 08:56:11;;;;;;;0.88;0.35;;;27.70;51.90;28.10;101114.00;;;;4970613;28;87935;-67
2023/07/18 08:58:37;;;;;;;0.90;0.40;;;27.80;51.20;28.30;101110.00;;;;4968124;28;87965;-66
2023/07/18 09:01:04;;;;;;;1.75;0.22;;;28.00;50.50;28.30;101114.00;;;;4966760;28;116888;-68
2023/07/18 09:03:30;;;;;;;1.95;0.50;;;28.10;49.80;28.40;101111.00;;;;4963878;28;88420;-67
2023/07/18 09:05:57;;;;;;;0.80;0.50;;;28.10;49.30;28.40;101109.00;;;;4965035;28;100372;-67
2023/07/18 09:08:23;;;;;;;0.45;0.45;;;28.20;48.80;28.40;101107.00;;;;4969824;28;88787;-66
2023/07/18 09:11:02;;;;;;;1.60;0.52;;;28.20;48.60;28.50;101090.00;;;;4966049;28;88366;-66
2023/07/18 09:13:27;;;;;;;3.58;0.77;;;28.20;48.60;28.60;101102.00;;;;4967747;28;87919;-67
2023/07/18 09:15:53;;;;;;;0.73;0.28;;;28.30;48.40;28.60;101100.00;;;;4964416;28;95938;-67
2023/07/18 09:18:19;;;;;;;0.98;0.57;;;28.30;47.40;28.60;101100.00;;;;4967487;28;113272;-66
2023/07/18 09:20:44;;;;;;;9.55;0.65;;;28.40;47.00;28.70;101095.00;;;;4964809;28;116273;-66
2023/07/18 09:23:13;;;;;;;1.42;0.55;;;28.40;47.00;28.80;101101.00;;;;4964715;28;108989;-67
2023/07/18 09:25:39;;;;;;;2.83;1.02;;;28.50;46.90;29.00;101090.00;;;;4963414;28;109285;-67
2023/07/18 09:28:11;;;;;;;0.70;0.40;;;28.60;46.60;29.10;101085.00;;;;4962298;28;89599;-68
2023/07/18 09:30:37;;;;;;;0.75;0.68;;;28.80;46.50;29.20;101093.00;;;;4967350;28;89909;-67
2023/07/18 09:33:05;;;;;;;0.43;0.43;;;28.90;46.20;29.40;101077.00;;;;4968328;28;87721;-66
2023/07/18 09:35:35;;;;;;;0.80;0.60;;;29.00;45.80;29.50;101084.00;;;;4965981;28;87818;-67
2023/07/18 09:38:02;;;;;;;1.13;0.60;;;29.10;45.30;29.60;101085.00;;;;4963734;28;94095;-67
2023/07/18 09:40:28;;;;;;;0.93;0.50;;;29.20;44.30;29.60;101083.00;;;;4969646;28;105120;-67
2023/07/18 09:42:54;;;;;;;1.45;0.55;;;29.30;44.20;29.70;101085.00;;;;4963440;28;112511;-68
2023/07/18 09:45:20;;;;;;;0.73;0.28;;;29.30;44.10;29.80;101075.00;;;;4963592;28;89798;-68
2023/07/18 09:47:46;;;;;;;0.98;0.68;;;29.40;44.30;29.90;101077.00;;;;4967346;28;108188;-69
2023/07/18 09:50:13;;;;;;;5.45;0.40;;;29.50;43.60;30.00;101066.00;;;;4962737;28;115846;-68
2023/07/18 09:52:44;;;;;;;1.17;0.77;;;29.60;42.80;30.10;101067.00;;;;4963929;28;87669;-69
2023/07/18 09:55:10;;;;;;;0.70;0.30;;;29.60;42.40;30.30;101065.00;;;;4968123;28;98894;-68
2023/07/18 09:57:43;;;;;;;0.70;0.43;;;29.80;42.20;30.30;101060.00;;;;4965433;28;118294;-69
2023/07/18 10:00:15;;;;;;;2.53;0.70;;;29.90;41.90;30.30;101060.00;;;;4975042;28;88901;-68
2023/07/18 10:02:41;;;;;;;2.00;1.25;;;29.90;41.30;30.30;101047.00;;;;4963702;28;87913;-68
2023/07/18 10:05:09;;;;;;;0.50;0.43;;;29.90;40.70;30.30;101044.00;;;;4975392;28;102354;-67
2023/07/18 10:07:37;;;;;;;0.32;0.32;;;29.90;40.90;30.40;101045.00;;;;4962550;28;88626;-68
2023/07/18 10:10:07;;;;;;;0.30;0.30;;;30.00;40.40;30.50;101045.00;;;;4959502;28;88304;-68
2023/07/18 10:12:37;;;;;;;0.38;0.38;;;30.00;39.90;30.50;101024.00;;;;4968157;28;87185;-69
2023/07/18 10:15:04;;;;;;;2.40;0.50;;;30.10;39.80;30.40;101030.00;;;;4959872;28;97219;-67
2023/07/18 10:17:38;;;;;;;0.40;0.30;;;30.00;39.20;30.10;101032.00;;;;4964908;28;88638;-68
2023/07/18 10:20:18;;;;;;;1.00;0.35;;;29.90;39.10;30.00;101036.00;;;;4945183;28;110971;-67
2023/07/18 10:22:57;;;;;;;0.50;0.43;;;29.60;39.40;30.00;101031.00;;;;4967043;28;87774;-66
2023/07/18 10:25:25;;;;;;;3.70;0.65;;;29.60;39.70;30.20;101029.00;;;;4964783;28;88113;-67
2023/07/18 10:27:51;;;;;;;1.75;0.60;;;29.60;39.60;30.40;101027.00;;;;4961819;28;89257;-68
2023/07/18 10:30:19;;;;;;;0.50;0.35;;;29.80;39.30;30.50;101018.00;;;;4963700;28;88252;-68
2023/07/18 10:32:56;;;;;;;0.13;0.13;;;29.90;39.30;30.80;101018.00;;;;4966989;28;88426;-67
2023/07/18 10:35:24;;;;;;;4.40;0.40;;;30.20;39.50;31.10;101014.00;;;;4965123;28;88534;-68
2023/07/18 10:38:03;;;;;;;1.73;0.50;;;30.50;38.90;31.40;101001.00;;;;4972467;28;87275;-68
2023/07/18 10:40:30;;;;;;;0.82;0.38;;;30.70;38.30;31.70;101017.00;;;;4969321;28;114562;-67
2023/07/18 10:42:56;;;;;;;1.48;0.98;;;30.90;38.50;32.00;101013.00;;;;4969202;28;87896;-67